Latest Weather Observations for Alva Beach

IDQ60801

Issued at 11:02 am EST Thursday 21 November 2019 (issued every 10 minutes, with the page automatically refreshed every 10 minutes)

About weather observations | Map of weather stations | Latest weather observations for QLD | Other Formats
Station Details ID: 033295 Name: ALVA BEACH Lat: -19.46 Lon: 147.48 Height: 7.5 m
Data from the previous 72 hours. | See also: Recent months at Alva Beach
Date/Time
EST
Temp
°C
App
Temp
°C
Dew
Point
°C
Rel
Hum
%
Delta-T
°C
Wind Press
QNH
hPa
Press
MSL
hPa
Rain since
9am
mm
Dir  Spd
km/h
Gust
km/h
Spd
kts
Gust
kts
21/11:00am 27.5 27.7 19.3 61 5.3 E 17 20 9 11 1014.6 1014.6 0.0
21/10:30am 28.0 28.8 19.8 61 5.3 E 15 20 8 11 1014.6 1014.6 0.0
21/10:00am 27.6 28.3 19.7 62 5.1 E 15 22 8 12 1014.7 1014.7 0.0
21/09:30am 27.5 27.5 19.8 63 5.0 ENE 19 24 10 13 1014.8 1014.8 0.0
21/09:00am 26.9 27.4 20.0 66 4.5 ENE 17 26 9 14 1014.9 1014.9 16.4
21/08:30am 26.8 27.2 19.9 66 4.5 ENE 17 22 9 12 1014.7 1014.7 16.4
21/08:00am 26.8 27.4 20.2 67 4.3 ENE 17 20 9 11 1014.6 1014.6 16.4
21/07:30am 26.5 27.0 20.1 68 4.2 ENE 17 22 9 12 1014.3 1014.3 16.4
21/07:00am 26.1 26.7 20.2 70 3.8 ENE 17 20 9 11 1014.1 1014.1 16.4
21/06:30am 25.8 26.3 20.1 71 3.7 ENE 17 20 9 11 1013.7 1013.7 16.4
21/06:00am 25.5 25.6 19.9 71 3.6 ENE 19 24 10 13 1013.4 1013.4 16.4
21/05:30am 25.4 25.7 20.4 74 3.3 ENE 19 24 10 13 1013.1 1013.1 16.4
21/05:00am 25.3 25.5 20.1 73 3.4 ENE 19 24 10 13 1012.8 1012.8 16.2
21/04:30am 25.3 25.4 20.3 74 3.3 ENE 20 24 11 13 1012.6 1012.6 16.2
21/04:00am 25.4 25.2 19.8 71 3.6 ENE 20 28 11 15 1012.4 1012.4 16.2
21/03:30am 25.3 25.4 20.3 74 3.3 ENE 20 24 11 13 1012.0 1012.0 16.2
21/03:00am 25.3 25.6 20.5 75 3.1 ENE 19 24 10 13 1011.8 1011.8 16.2
21/02:30am 25.3 25.6 20.5 75 3.1 ENE 19 24 10 13 1011.7 1011.7 16.2
21/02:00am 25.4 25.4 20.9 76 3.0 ENE 22 28 12 15 1011.8 1011.8 16.2
21/01:30am 25.5 25.4 20.7 75 3.1 ENE 22 28 12 15 1011.9 1011.9 16.2
21/01:00am 25.6 25.4 20.6 74 3.3 E 22 32 12 17 1012.1 1012.1 16.2
21/12:30am 25.6 25.9 20.8 75 3.2 E 20 30 11 16 1012.3 1012.3 16.2
21/12:00am 25.6 25.5 20.8 75 3.2 ENE 22 28 12 15 1012.6 1012.6 16.2
 
Date/Time
EST
Temp
°C
App
Temp
°C
Dew
Point
°C
Rel
Hum
%
Delta-T
°C
Wind Press
QNH
hPa
Press
MSL
hPa
Rain since
9am
mm
Dir  Spd
km/h
Gust
km/h
Spd
kts
Gust
kts
20/11:30pm 25.7 26.2 21.1 76 3.0 ENE 20 28 11 15 1012.9 1012.9 16.2
20/11:00pm 25.7 25.2 20.7 74 3.3 ENE 24 30 13 16 1013.0 1013.0 16.2
20/10:30pm 25.8 25.4 21.0 75 3.2 ENE 24 30 13 16 1013.1 1013.1 16.2
20/10:00pm 25.9 25.6 21.1 75 3.2 ENE 24 30 13 16 1013.1 1013.1 16.2
20/09:30pm 25.9 25.0 20.7 73 3.4 ENE 26 32 14 17 1012.8 1012.8 16.2
20/09:00pm 26.0 25.4 21.2 75 3.2 ENE 26 32 14 17 1012.7 1012.7 16.2
20/08:30pm 26.2 26.1 21.4 75 3.2 ENE 24 30 13 16 1012.5 1012.5 16.2
20/08:00pm 26.1 25.0 21.1 74 3.3 ENE 28 32 15 17 1012.3 1012.3 16.2
20/07:30pm 26.1 24.9 21.5 76 3.1 ENE 30 35 16 19 1012.1 1012.1 16.2
20/07:00pm 26.5 26.4 22.3 78 2.8 ENE 26 33 14 18 1011.7 1011.7 16.2
20/06:30pm 26.4 25.6 21.6 75 3.2 NE 28 33 15 18 1011.5 1011.5 16.2
20/06:00pm 26.5 25.9 21.9 76 3.1 NE 28 33 15 18 1011.0 1011.0 0.0
20/05:30pm 26.7 25.9 21.7 74 3.3 NE 28 32 15 17 1010.8 1010.8 0.0
20/05:00pm 27.1 27.4 21.6 72 3.7 NNE 22 28 12 15 1010.1 1010.1 0.0
20/04:30pm 27.1 27.3 21.4 71 3.8 NE 22 28 12 15 1010.1 1010.1 0.0
20/04:00pm 27.2 27.3 21.2 69 4.0 NNE 22 26 12 14 1010.0 1010.0 0.0
20/03:30pm 27.5 28.0 21.1 68 4.2 NE 20 24 11 13 1010.1 1010.1 0.0
20/03:00pm 27.5 27.6 21.1 68 4.2 NE 22 24 12 13 1010.5 1010.5 0.0
20/02:30pm 27.8 28.3 20.9 66 4.6 NE 19 24 10 13 1010.7 1010.7 0.0
20/02:00pm 28.0 28.6 21.1 66 4.6 NE 19 24 10 13 1010.8 1010.8 0.0
20/01:30pm 28.6 29.5 20.9 63 5.1 NE 17 22 9 12 1011.2 1011.2 0.0
20/01:00pm 28.4 28.8 20.7 63 5.1 NE 19 22 10 12 1011.6 1011.6 0.0
20/12:30pm 29.2 30.0 21.4 63 5.2 ENE 19 26 10 14 1012.0 1012.0 0.0
20/12:00pm 28.7 29.0 20.4 60 5.5 ENE 19 24 10 13 1012.4 1012.4 0.0
20/11:30am 28.2 29.0 20.7 63 5.0 ENE 17 22 9 12 1012.5 1012.5 0.0
20/11:00am 28.5 29.5 21.0 64 5.0 ENE 17 20 9 11 1012.7 1012.7 0.0
20/10:30am 28.6 30.0 21.1 64 5.0 ENE 15 20 8 11 1012.9 1012.9 0.0
20/10:00am 27.6 28.8 19.9 63 5.0 ENE 13 20 7 11 1013.1 1013.1 0.0
20/09:30am 28.2 29.5 20.2 62 5.2 ENE 13 17 7 9 1013.3 1013.3 0.0
20/09:00am 27.5 29.6 20.1 64 4.8 NE 9 15 5 8 1013.6 1013.6 0.0
20/08:30am 27.8 29.6 20.4 64 4.9 ENE 11 15 6 8 1013.5 1013.5 0.0
20/08:00am 27.4 29.1 20.2 65 4.7 NE 11 15 6 8 1013.4 1013.4 0.0
20/07:30am 27.0 28.6 19.9 65 4.6 NE 11 17 6 9 1013.2 1013.2 0.0
20/07:00am 26.4 27.4 19.5 66 4.5 NE 13 19 7 10 1013.0 1013.0 0.0
20/06:30am 25.9 27.4 20.5 72 3.5 NE 13 19 7 10 1012.8 1012.8 0.0
20/06:00am 25.4 26.6 20.0 72 3.5 NE 13 17 7 9 1012.5 1012.5 0.0
20/05:30am 25.3 26.2 20.1 73 3.4 NE 15 19 8 10 1012.3 1012.3 0.0
20/05:00am 25.2 25.8 20.2 74 3.3 NE 17 22 9 12 1012.1 1012.1 0.0
20/04:30am 25.3 25.6 20.3 74 3.3 NE 19 24 10 13 1011.7 1011.7 0.0
20/04:00am 25.2 25.4 20.5 75 3.1 ENE 20 24 11 13 1011.5 1011.5 0.0
20/03:30am 25.3 25.1 20.5 75 3.1 NE 22 26 12 14 1011.4 1011.4 0.0
20/03:00am 25.3 25.2 20.8 76 3.0 NE 22 26 12 14 1011.4 1011.4 0.0
20/02:30am 25.4 24.8 20.6 75 3.1 NE 24 28 13 15 1011.4 1011.4 0.0
20/02:00am 25.4 25.5 21.1 77 2.8 NE 22 28 12 15 1011.6 1011.6 0.0
20/01:30am 25.5 25.1 21.0 76 3.0 NE 24 30 13 16 1011.9 1011.9 0.0
20/01:00am 25.5 24.2 20.7 75 3.1 ENE 28 33 15 18 1012.1 1012.1 0.0
20/12:30am 25.8 25.3 21.5 77 2.9 ENE 26 32 14 17 1012.6 1012.6 0.0
20/12:00am 25.7 25.7 21.6 78 2.7 ENE 24 30 13 16 1013.0 1013.0 0.0
 
Date/Time
EST
Temp
°C
App
Temp
°C
Dew
Point
°C
Rel
Hum
%
Delta-T
°C
Wind Press
QNH
hPa
Press
MSL
hPa
Rain since
9am
mm
Dir  Spd
km/h
Gust
km/h
Spd
kts
Gust
kts
19/11:30pm 25.8 25.4 21.7 78 2.7 ENE 26 30 14 16 1013.3 1013.3 0.0
19/11:00pm 25.8 25.8 21.7 78 2.7 ENE 24 30 13 16 1013.6 1013.6 0.0
19/10:30pm 25.8 25.8 21.7 78 2.7 ENE 24 28 13 15 1013.6 1013.6 0.0
19/10:00pm 25.9 25.7 21.3 76 3.0 ENE 24 30 13 16 1013.5 1013.5 0.0
19/09:30pm 26.0 26.2 22.1 79 2.6 ENE 24 28 13 15 1013.4 1013.4 0.0
19/09:00pm 26.0 26.1 21.9 78 2.7 ENE 24 30 13 16 1013.1 1013.1 0.0
19/08:30pm 26.0 26.4 21.7 77 2.9 ENE 22 28 12 15 1013.0 1013.0 0.0
19/08:00pm 26.2 26.4 22.1 78 2.7 ENE 24 30 13 16 1012.7 1012.7 0.0
19/07:30pm 26.2 26.4 22.1 78 2.7 ENE 24 30 13 16 1012.5 1012.5 0.0
19/07:00pm 26.3 27.0 22.2 78 2.8 ENE 22 30 12 16 1012.2 1012.2 0.0
19/06:30pm 26.3 26.5 21.3 74 3.3 NE 22 28 12 15 1011.8 1011.8 0.0
19/06:00pm 26.5 26.6 21.9 76 3.1 ENE 24 30 13 16 1011.4 1011.4 0.0
19/05:30pm 26.6 26.8 21.4 73 3.5 ENE 22 26 12 14 1011.2 1011.2 0.0
19/05:00pm 27.0 27.5 22.0 74 3.4 ENE 22 28 12 15 1010.9 1010.9 0.0
19/04:30pm 27.3 27.6 21.6 71 3.8 ENE 22 26 12 14 1010.7 1010.7 0.0
19/04:00pm 27.8 28.1 21.6 69 4.1 ENE 22 26 12 14 1010.6 1010.6 0.0
19/03:30pm 28.0 28.9 21.5 67 4.3 ENE 19 24 10 13 1010.8 1010.8 0.0
19/03:00pm 28.2 29.1 21.5 67 4.5 ENE 19 24 10 13 1011.1 1011.1 0.0
19/02:30pm 28.2 28.6 21.0 65 4.8 ENE 20 26 11 14 1011.2 1011.2 0.0
19/02:00pm 28.6 29.4 21.4 65 4.8 ENE 19 24 10 13 1011.3 1011.3 0.0
19/01:30pm 28.0 28.5 20.8 65 4.8 ENE 19 24 10 13 1011.7 1011.7 0.0
19/01:00pm 28.4 29.1 21.2 65 4.8 ENE 19 24 10 13 1012.0 1012.0 0.0
19/12:30pm 28.6 29.4 21.4 65 4.8 ENE 19 24 10 13 1012.5 1012.5 0.0
19/12:00pm 28.8 29.4 21.3 64 5.0 ENE 20 24 11 13 1012.7 1012.7 0.0
19/11:30am 29.0 30.1 22.0 66 4.7 ENE 19 24 10 13 1013.3 1013.3 0.0
19/11:00am 28.3 29.6 21.6 67 4.5 ENE 17 22 9 12 1013.6 1013.6 0.0
19/10:30am 28.6 29.9 21.6 66 4.7 ENE 17 20 9 11 1013.9 1013.9 0.0
19/10:00am 28.2 29.4 21.5 67 4.5 ENE 17 22 9 12 1014.2 1014.2 0.0
19/09:30am 28.4 29.4 21.7 67 4.5 ENE 19 22 10 12 1014.3 1014.3 0.0
19/09:00am 28.0 28.6 21.1 66 4.6 ENE 19 22 10 12 1014.4 1014.4 0.0
19/08:30am 27.7 27.9 20.5 65 4.7 ENE 20 24 11 13 1014.4 1014.4 0.0
19/08:00am 26.5 27.5 21.0 72 3.6 NE 17 22 9 12 1014.2 1014.2 0.0
19/07:30am 27.3 27.9 21.1 69 4.1 ENE 19 22 10 12 1014.0 1014.0 0.0
19/07:00am 26.6 28.6 22.2 77 3.0 ENE 15 19 8 10 1013.6 1013.6 0.0
19/06:30am 26.1 27.2 21.3 75 3.2 ENE 17 20 9 11 1013.3 1013.3 0.0
19/06:00am 25.5 26.6 21.2 77 2.8 ENE 17 20 9 11 1013.0 1013.0 0.0
19/05:30am 25.4 26.6 21.5 79 2.6 NE 17 20 9 11 1012.7 1012.7 0.0
19/05:00am 25.5 26.7 21.4 78 2.7 NE 17 22 9 12 1012.4 1012.4 0.0
19/04:30am 25.5 26.1 21.4 78 2.7 ENE 20 22 11 12 1012.3 1012.3 0.0
19/04:00am 25.4 25.6 21.3 78 2.7 ENE 22 26 12 14 1012.0 1012.0 0.0
19/03:30am 25.5 25.9 21.0 76 3.0 NE 20 24 11 13 1011.9 1011.9 0.0
19/03:00am 25.6 25.9 21.5 78 2.7 NE 22 28 12 15 1011.8 1011.8 0.0
19/02:30am 25.6 25.5 21.5 78 2.7 NE 24 28 13 15 1011.8 1011.8 0.0
19/02:00am 25.7 25.4 21.8 79 2.6 NE 26 30 14 16 1011.8 1011.8 0.0
19/01:30am 25.7 24.8 21.4 77 2.8 NE 28 32 15 17 1012.1 1012.1 0.0
19/01:00am 25.8 26.4 22.1 80 2.5 NE 22 28 12 15 1012.6 1012.6 0.0
19/12:30am 25.9 25.7 22.0 79 2.6 NE 26 30 14 16 1013.0 1013.0 0.0
19/12:00am 25.9 25.5 21.6 77 2.9 NE 26 32 14 17 1013.3 1013.3 0.0
 
Date/Time
EST
Temp
°C
App
Temp
°C
Dew
Point
°C
Rel
Hum
%
Delta-T
°C
Wind Press
QNH
hPa
Press
MSL
hPa
Rain since
9am
mm
Dir  Spd
km/h
Gust
km/h
Spd
kts
Gust
kts
18/11:30pm 26.0 26.1 21.9 78 2.7 NE 24 32 13 17 1013.6 1013.6 0.0
18/11:00pm 26.0 25.2 21.7 77 2.9 NE 28 32 15 17 1013.7 1013.7 0.0
18/10:30pm 26.1 25.9 22.0 78 2.7 NE 26 32 14 17 1013.8 1013.8 0.0
18/10:00pm 26.0 25.6 22.3 80 2.5 NE 28 32 15 17 1013.9 1013.9 0.0
18/09:30pm 26.1 26.1 22.4 80 2.5 NE 26 32 14 17 1013.7 1013.7 0.0
18/09:00pm 26.0 26.3 22.3 80 2.5 NE 24 28 13 15 1013.2 1013.2 0.0
18/08:30pm 26.1 27.2 23.0 83 2.1 NNE 22 28 12 15 1013.0 1013.0 0.0
18/08:00pm 26.1 26.7 22.8 82 2.2 NNE 24 28 13 15 1012.8 1012.8 0.0
18/07:30pm 26.2 26.3 22.5 80 2.5 NNE 26 30 14 16 1012.4 1012.4 0.0
18/07:00pm 26.2 26.9 22.3 79 2.6 NNE 22 26 12 14 1012.2 1012.2 0.0
18/06:30pm 26.3 26.8 21.9 77 2.9 NNE 22 28 12 15 1012.2 1012.2 0.0
18/06:00pm 26.6 27.3 22.2 77 3.0 NNE 22 26 12 14 1011.9 1011.9 0.0
18/05:30pm 26.8 27.2 22.4 77 3.0 NNE 24 28 13 15 1011.5 1011.5 0.0
18/05:00pm 27.1 27.2 22.5 76 3.1 NE 26 32 14 17 1011.2 1011.2 0.0
18/04:30pm 27.3 26.5 22.3 74 3.4 NE 30 33 16 18 1010.9 1010.9 0.0
18/04:00pm 27.6 26.3 22.1 72 3.7 NE 32 37 17 20 1011.0 1011.0 0.0
18/03:30pm 27.5 26.4 21.8 71 3.8 NE 30 33 16 18 1011.1 1011.1 0.0
18/03:00pm 28.0 27.0 22.0 70 4.0 NE 30 33 16 18 1011.4 1011.4 0.0
18/02:30pm 27.8 26.6 21.6 69 4.1 NE 30 35 16 19 1011.8 1011.8 0.0
18/02:00pm 28.1 27.3 20.9 65 4.8 NE 26 30 14 16 1011.8 1011.8 0.0
18/01:30pm 28.3 28.5 21.3 65 4.7 NE 22 26 12 14 1012.1 1012.1 0.0
18/01:00pm 28.5 28.7 21.3 65 4.8 NE 22 28 12 15 1012.5 1012.5 0.0
18/12:30pm 28.2 28.2 21.0 65 4.8 NE 22 26 12 14 1012.8 1012.8 0.0
18/12:00pm 28.3 28.2 20.8 63 5.0 NE 22 24 12 13 1013.0 1013.0 0.0
18/11:30am 28.8 29.0 21.3 64 5.0 NE 22 26 12 14 1013.1 1013.1 0.0

Other formats

Comma delimited format used in spreadsheet applications
http://www.bom.gov.au/fwo/IDQ60801/IDQ60801.95296.axf

JavaScript Object Notation format (JSON) in row-major order
http://www.bom.gov.au/fwo/IDQ60801/IDQ60801.95296.json

Data quality

Most of these data are generated automatically and are frequently updated. Quality checks on data are not normally performed. It is possible for incorrect values to appear. Refer to information at About Latest Weather Observations and please check the disclaimer before using these data.